createdAt,value
2023-05-21T00:00:19.135Z,101782.34
2023-05-21T00:02:52.156Z,101792.44
2023-05-21T00:05:19.308Z,101757.38
2023-05-21T00:08:09.202Z,101785.88
2023-05-21T00:10:42.900Z,101776.25
2023-05-21T00:13:17.122Z,101773.69
2023-05-21T00:15:44.509Z,101770.41
2023-05-21T00:18:19.129Z,101758.97
2023-05-21T00:20:46.185Z,101756.63
2023-05-21T00:23:20.122Z,101751.53
2023-05-21T00:25:47.152Z,101762.75
2023-05-21T00:28:20.112Z,101751.06
2023-05-21T00:30:54.091Z,101753.22
2023-05-21T00:33:29.155Z,101751.53
2023-05-21T00:36:03.076Z,101748.25
2023-05-21T00:38:36.053Z,101759.06
2023-05-21T00:41:09.212Z,101740.56
2023-05-21T00:43:51.065Z,101753.03
2023-05-21T00:46:26.240Z,101728.63
2023-05-21T00:49:02.079Z,101723.50
2023-05-21T00:51:38.167Z,101736.47
2023-05-21T00:54:05.021Z,101743.38
2023-05-21T00:56:40.184Z,101740.69
2023-05-21T00:59:07.844Z,101751.06
2023-05-21T01:01:44.238Z,101752.28
2023-05-21T01:04:12.326Z,101734.72
2023-05-21T01:06:46.109Z,101706.22
2023-05-21T01:09:13.213Z,101710.03
2023-05-21T01:11:58.077Z,101734.97
2023-05-21T01:14:25.758Z,101737.78
2023-05-21T01:17:00.163Z,101710.91
2023-05-21T01:19:33.279Z,101722.22
2023-05-21T01:22:15.278Z,101701.66
2023-05-21T01:24:54.101Z,101718.34
2023-05-21T01:27:21.366Z,101732.09
2023-05-21T01:29:55.169Z,101704.09
2023-05-21T01:32:28.772Z,101694.59
2023-05-21T01:35:44.135Z,101698.72
2023-05-21T01:38:26.736Z,101690.47
2023-05-21T01:41:15.324Z,101705.94
2023-05-21T01:43:49.132Z,101689.00
2023-05-21T01:46:27.192Z,101711.38
2023-05-21T01:48:59.473Z,101709.56
2023-05-21T01:51:34.151Z,101696.16
2023-05-21T01:54:03.744Z,101708.97
2023-05-21T01:56:40.193Z,101707.16
2023-05-21T01:59:09.558Z,101691.06
2023-05-21T02:01:43.165Z,101698.63
2023-05-21T02:04:10.264Z,101703.13
2023-05-21T02:06:46.346Z,101695.34
2023-05-21T02:09:13.409Z,101679.75
2023-05-21T02:11:47.281Z,101683.38
2023-05-21T02:14:23.211Z,101703.00
2023-05-21T02:16:51.038Z,101679.75
2023-05-21T02:19:27.359Z,101664.38
2023-05-21T02:21:57.227Z,101663.00
2023-05-21T02:24:34.180Z,101680.56
2023-05-21T02:27:01.313Z,101674.66
2023-05-21T02:29:35.299Z,101660.19
2023-05-21T02:32:09.342Z,101692.91
2023-05-21T02:34:44.175Z,101672.94
2023-05-21T02:37:14.289Z,101658.41
2023-05-21T02:39:48.266Z,101655.25
2023-05-21T02:42:29.308Z,101660.59
2023-05-21T02:45:05.979Z,101668.13
2023-05-21T02:47:34.764Z,101660.56
2023-05-21T02:50:11.607Z,101659.72
2023-05-21T02:52:38.692Z,101673.22
2023-05-21T02:55:06.386Z,101667.69
2023-05-21T02:57:40.125Z,101677.22
2023-05-21T03:00:15.227Z,101665.47
2023-05-21T03:02:43.313Z,101672.06
2023-05-21T03:05:11.114Z,101694.81
2023-05-21T03:07:45.257Z,101670.00
2023-05-21T03:10:25.118Z,101681.94
2023-05-21T03:12:53.815Z,101667.66
2023-05-21T03:15:30.361Z,101655.59
2023-05-21T03:18:04.366Z,101673.50
2023-05-21T03:20:39.421Z,101678.84
2023-05-21T03:23:16.901Z,101660.19
2023-05-21T03:25:51.347Z,101658.75
2023-05-21T03:28:25.213Z,101674.31
2023-05-21T03:30:53.687Z,101657.50
2023-05-21T03:33:27.283Z,101658.78
2023-05-21T03:35:55.250Z,101676.94
2023-05-21T03:38:25.435Z,101650.34
2023-05-21T03:40:59.274Z,101650.34
2023-05-21T03:43:33.158Z,101652.41
2023-05-21T03:46:06.223Z,101658.16
2023-05-21T03:48:33.181Z,101648.66
2023-05-21T03:51:09.157Z,101672.53
2023-05-21T03:53:37.523Z,101645.38
2023-05-21T03:56:11.259Z,101673.72
2023-05-21T03:58:38.846Z,101656.13
2023-05-21T04:01:06.024Z,101654.06
2023-05-21T04:03:42.525Z,101648.22
2023-05-21T04:06:10.569Z,101658.31
2023-05-21T04:08:45.358Z,101679.66
2023-05-21T04:11:22.284Z,101673.47
2023-05-21T04:13:49.543Z,101646.56
2023-05-21T04:16:25.386Z,101650.72
2023-05-21T04:18:55.731Z,101685.34
2023-05-21T04:21:29.206Z,101657.44
2023-05-21T04:24:04.191Z,101661.97
2023-05-21T04:26:41.280Z,101659.19
2023-05-21T04:29:16.269Z,101664.91
2023-05-21T04:31:43.745Z,101661.03
2023-05-21T04:34:17.358Z,101678.72
2023-05-21T04:36:45.933Z,101663.03
2023-05-21T04:39:20.351Z,101662.91
2023-05-21T04:41:55.252Z,101661.81
2023-05-21T04:44:39.391Z,101660.59
2023-05-21T04:47:15.154Z,101680.00
2023-05-21T04:49:49.312Z,101675.94
2023-05-21T04:52:17.088Z,101660.75
2023-05-21T04:54:52.375Z,101690.34
2023-05-21T04:57:19.926Z,101671.59
2023-05-21T04:59:56.291Z,101679.16
2023-05-21T05:02:30.352Z,101695.03
2023-05-21T05:05:00.227Z,101663.22
2023-05-21T05:07:37.434Z,101683.38
2023-05-21T05:10:07.659Z,101659.97
2023-05-21T05:12:41.370Z,101664.72
2023-05-21T05:15:09.760Z,101653.50
2023-05-21T05:17:43.378Z,101662.31
2023-05-21T05:20:12.356Z,101676.22
2023-05-21T05:22:48.272Z,101676.94
2023-05-21T05:25:19.034Z,101644.19
2023-05-21T05:27:52.387Z,101643.13
2023-05-21T05:30:26.513Z,101665.13
2023-05-21T05:33:00.316Z,101645.03
2023-05-21T05:35:27.693Z,101674.38
2023-05-21T05:38:01.366Z,101646.16
2023-05-21T05:40:28.462Z,101653.69
2023-05-21T05:43:08.343Z,101646.03
2023-05-21T05:45:42.354Z,101673.41
2023-05-21T05:48:10.466Z,101662.19
2023-05-21T05:50:44.329Z,101646.38
2023-05-21T05:53:13.765Z,101648.81
2023-05-21T05:55:48.272Z,101658.78
2023-05-21T05:58:15.616Z,101637.34
2023-05-21T06:00:49.380Z,101639.53
2023-05-21T06:03:19.022Z,101660.94
2023-05-21T06:05:52.377Z,101639.16
2023-05-21T06:08:19.517Z,101642.81
2023-05-21T06:10:55.343Z,101668.72
2023-05-21T06:13:22.320Z,101665.44
2023-05-21T06:16:01.054Z,101643.03
2023-05-21T06:18:34.353Z,101642.53
2023-05-21T06:21:08.285Z,101651.66
2023-05-21T06:23:37.008Z,101653.94
2023-05-21T06:26:14.304Z,101649.19
2023-05-21T06:28:54.428Z,101672.81
2023-05-21T06:31:29.316Z,101675.34
2023-05-21T06:33:56.448Z,101649.28
2023-05-21T06:36:32.342Z,101648.66
2023-05-21T06:39:08.300Z,101668.50
2023-05-21T06:41:55.261Z,101652.53
2023-05-21T06:44:22.458Z,101639.47
2023-05-21T06:46:51.998Z,101653.72
2023-05-21T06:49:25.352Z,101648.81
2023-05-21T06:51:52.303Z,101666.16
2023-05-21T06:54:28.335Z,101666.28
2023-05-21T06:57:01.359Z,101668.59
2023-05-21T06:59:28.356Z,101641.41
2023-05-21T07:02:04.465Z,101659.22
2023-05-21T07:04:38.362Z,101654.13
2023-05-21T07:07:05.373Z,101667.47
2023-05-21T07:09:41.348Z,101662.31
2023-05-21T07:12:08.314Z,101652.41
2023-05-21T07:14:35.234Z,101663.66
2023-05-21T07:17:08.452Z,101642.84
2023-05-21T07:19:42.371Z,101643.63
2023-05-21T07:22:15.349Z,101650.47
2023-05-21T07:24:42.302Z,101658.06
2023-05-21T07:27:25.398Z,101657.16
2023-05-21T07:29:53.048Z,101649.31
2023-05-21T07:32:26.409Z,101649.97
2023-05-21T07:34:54.406Z,101655.75
2023-05-21T07:37:28.378Z,101643.47
2023-05-21T07:39:58.980Z,101637.25
2023-05-21T07:42:39.371Z,101643.69
2023-05-21T07:45:09.784Z,101632.22
2023-05-21T07:47:43.593Z,101646.53
2023-05-21T07:50:11.345Z,101657.59
2023-05-21T07:52:44.480Z,101630.41
2023-05-21T07:55:11.438Z,101663.44
2023-05-21T07:57:44.334Z,101639.75
2023-05-21T08:00:14.480Z,101648.28
2023-05-21T08:02:41.530Z,101640.09
2023-05-21T08:05:18.743Z,101627.06
2023-05-21T08:07:53.403Z,101636.13
2023-05-21T08:10:26.427Z,101639.06
2023-05-21T08:12:53.260Z,101631.69
2023-05-21T08:15:26.566Z,101637.50
2023-05-21T08:17:53.437Z,101620.63
2023-05-21T12:27:06.496Z,101496.00
2023-05-21T12:29:40.494Z,101505.84
2023-05-21T12:32:15.553Z,101505.91
2023-05-21T12:34:44.938Z,101496.53
2023-05-21T12:37:31.697Z,101501.06
2023-05-21T12:40:00.724Z,101492.72
2023-05-21T12:42:42.555Z,101505.78
2023-05-21T12:45:10.528Z,101515.81
2023-05-21T12:47:44.627Z,101503.63
2023-05-21T12:50:12.961Z,101500.53
2023-05-21T12:52:49.689Z,101488.44
2023-05-21T12:55:17.609Z,101483.25
2023-05-21T12:57:50.571Z,101482.25
2023-05-21T13:00:30.645Z,101496.53
2023-05-21T13:03:00.347Z,101486.03
2023-05-21T13:05:33.495Z,101506.41
2023-05-21T13:08:00.322Z,101501.38
2023-05-21T13:10:33.543Z,101503.09
2023-05-21T13:13:00.587Z,101503.94
2023-05-21T13:15:34.681Z,101482.84
2023-05-21T13:18:02.427Z,101465.38
2023-05-21T13:20:36.975Z,101480.97
2023-05-21T13:23:07.203Z,101473.41
2023-05-21T13:25:41.569Z,101472.16
2023-05-21T13:28:16.282Z,101490.91
2023-05-21T13:30:49.597Z,101482.94
2023-05-21T13:33:16.950Z,101471.38
2023-05-21T13:35:52.553Z,101460.63
2023-05-21T13:38:19.600Z,101454.53
2023-05-21T13:40:46.611Z,101458.75
2023-05-21T13:43:19.574Z,101462.53
2023-05-21T13:45:49.703Z,101459.38
2023-05-21T13:48:23.764Z,101452.41
2023-05-21T13:50:50.773Z,101450.28
2023-05-21T13:53:26.562Z,101441.00
2023-05-21T13:55:53.697Z,101432.84
2023-05-21T13:58:27.579Z,101439.19
2023-05-21T14:00:54.772Z,101426.16
2023-05-21T14:03:28.610Z,101433.28
2023-05-21T14:05:56.207Z,101425.09
2023-05-21T14:08:30.600Z,101434.97
2023-05-21T14:11:05.029Z,101434.13
2023-05-21T14:13:32.793Z,101436.84
2023-05-21T14:16:06.608Z,101435.31
2023-05-21T14:18:33.649Z,101434.50
2023-05-21T14:21:06.711Z,101433.69
2023-05-21T14:23:33.681Z,101437.88
2023-05-21T14:26:07.595Z,101439.56
2023-05-21T14:28:40.839Z,101440.81
2023-05-21T14:31:20.734Z,101439.31
2023-05-21T14:33:47.759Z,101447.34
2023-05-21T14:36:21.773Z,101456.41
2023-05-21T14:38:55.622Z,101447.16
2023-05-21T14:41:35.856Z,101458.91
2023-05-21T14:44:03.340Z,101456.16
2023-05-21T14:46:36.860Z,101441.44
2023-05-21T14:49:10.594Z,101442.88
2023-05-21T14:51:37.347Z,101451.09
2023-05-21T14:54:10.632Z,101449.53
2023-05-21T14:56:37.516Z,101452.66
2023-05-21T14:59:10.641Z,101458.28
2023-05-21T15:01:37.714Z,101441.78
2023-05-21T15:04:11.844Z,101426.63
2023-05-21T15:06:38.982Z,101440.13
2023-05-21T15:09:12.594Z,101436.34
2023-05-21T15:11:40.446Z,101434.09
2023-05-21T15:14:14.852Z,101433.25
2023-05-21T15:16:42.252Z,101436.44
2023-05-21T15:19:15.708Z,101429.09
2023-05-21T15:21:42.781Z,101439.63
2023-05-21T15:24:18.832Z,101445.16
2023-05-21T15:26:52.639Z,101450.22
2023-05-21T15:29:25.895Z,101439.72
2023-05-21T15:31:59.638Z,101438.50
2023-05-21T15:34:26.952Z,101437.91
2023-05-21T15:37:00.667Z,101440.81
2023-05-21T15:39:27.837Z,101436.19
2023-05-21T15:42:01.580Z,101432.59
2023-05-21T15:44:28.548Z,101435.75
2023-05-21T15:47:01.974Z,101432.63
2023-05-21T15:49:29.220Z,101433.88
2023-05-21T15:52:04.663Z,101423.81
2023-05-21T15:54:37.646Z,101432.00
2023-05-21T15:57:10.660Z,101420.81
2023-05-21T15:59:43.653Z,101420.19
2023-05-21T16:02:10.796Z,101417.88
2023-05-21T16:04:44.813Z,101420.81
2023-05-21T16:07:11.883Z,101417.81
2023-05-21T16:09:45.691Z,101416.53
2023-05-21T16:12:12.714Z,101417.72
2023-05-21T16:14:46.725Z,101409.03
2023-05-21T16:17:13.846Z,101412.34
2023-05-21T16:19:47.897Z,101416.81
2023-05-21T16:22:21.706Z,101409.72
2023-05-21T16:24:55.751Z,101409.72
2023-05-21T16:27:29.736Z,101409.78
2023-05-21T16:30:04.400Z,101410.63
2023-05-21T16:32:37.762Z,101409.34
2023-05-21T16:35:11.936Z,101393.25
2023-05-21T16:37:45.694Z,101376.06
2023-05-21T16:40:20.860Z,101392.38
2023-05-21T16:42:54.668Z,101390.66
2023-05-21T16:45:29.696Z,101388.81
2023-05-21T16:48:02.844Z,101397.47
2023-05-21T16:50:29.826Z,101401.50
2023-05-21T16:53:03.681Z,101396.38
2023-05-21T16:55:31.638Z,101397.81
2023-05-21T16:58:05.740Z,101396.75
2023-05-21T17:00:33.694Z,101402.56
2023-05-21T17:03:07.909Z,101395.84
2023-05-21T17:05:41.737Z,101389.28
2023-05-21T17:08:09.185Z,101379.09
2023-05-21T17:10:42.786Z,101376.13
2023-05-21T17:13:21.289Z,101382.63
2023-05-21T17:15:56.017Z,101378.97
2023-05-21T17:18:23.066Z,101381.84
2023-05-21T17:20:56.839Z,101387.56
2023-05-21T17:23:30.661Z,101383.41
2023-05-21T17:26:04.697Z,101392.41
2023-05-21T17:28:37.850Z,101390.25
2023-05-21T17:31:17.782Z,101390.84
2023-05-21T17:33:51.788Z,101376.69
2023-05-21T17:36:25.755Z,101395.69
2023-05-21T17:38:52.702Z,101395.22
2023-05-21T17:41:25.787Z,101392.44
2023-05-21T17:43:52.729Z,101400.19
2023-05-21T17:46:19.807Z,101405.84
2023-05-21T17:48:53.912Z,101386.25
2023-05-21T17:51:20.850Z,101390.19
2023-05-21T17:53:54.732Z,101397.88
2023-05-21T17:56:28.771Z,101375.63
2023-05-21T17:59:02.744Z,101399.66
2023-05-21T18:01:29.839Z,101396.72
2023-05-21T18:04:03.783Z,101395.25
2023-05-21T18:06:31.502Z,101374.22
2023-05-21T18:09:05.804Z,101389.13
2023-05-21T18:11:32.841Z,101398.59
2023-05-21T18:14:06.844Z,101377.31
2023-05-21T18:16:33.833Z,101405.44
2023-05-21T18:19:06.081Z,101388.94
2023-05-21T18:21:40.899Z,101397.44
2023-05-21T18:24:08.272Z,101403.53
2023-05-21T18:26:35.166Z,101405.13
2023-05-21T18:29:08.770Z,101395.84
2023-05-21T18:31:35.671Z,101399.50
2023-05-21T18:34:08.799Z,101399.84
2023-05-21T18:36:39.134Z,101404.59
2023-05-21T18:39:15.822Z,101400.94
2023-05-21T18:41:43.005Z,101405.03
2023-05-21T18:44:16.811Z,101392.34
2023-05-21T18:46:44.666Z,101394.78
2023-05-21T18:49:18.840Z,101389.53
2023-05-21T18:51:45.783Z,101392.97
2023-05-21T18:54:18.768Z,101399.09
2023-05-21T18:56:45.766Z,101391.72
2023-05-21T18:59:19.835Z,101386.69
2023-05-21T19:01:46.843Z,101373.34
2023-05-21T19:04:14.040Z,101390.31
2023-05-21T19:06:47.862Z,101385.78
2023-05-21T19:09:20.807Z,101381.44
2023-05-21T19:11:53.833Z,101381.97
2023-05-21T19:14:21.364Z,101394.69
2023-05-21T19:16:54.882Z,101387.44
2023-05-21T19:19:21.956Z,101385.97
2023-05-21T19:21:55.838Z,101387.34
2023-05-21T19:24:22.962Z,101384.19
2023-05-21T19:26:56.932Z,101391.81
2023-05-21T19:29:29.887Z,101392.00
2023-05-21T19:32:03.906Z,101387.63
2023-05-21T19:34:31.176Z,101386.31
2023-05-21T19:37:04.866Z,101395.97
2023-05-21T19:39:48.779Z,101397.81
2023-05-21T19:42:17.682Z,101402.25
2023-05-21T19:44:50.843Z,101400.25
2023-05-21T19:47:23.964Z,101397.69
2023-05-21T19:49:57.841Z,101400.25
2023-05-21T19:52:31.849Z,101396.84
2023-05-21T19:55:11.942Z,101414.28
2023-05-21T19:57:46.918Z,101409.19
2023-05-21T20:00:20.869Z,101413.44
2023-05-21T20:02:48.123Z,101407.34
2023-05-21T20:05:15.344Z,101409.66
2023-05-21T20:07:48.960Z,101405.94
2023-05-21T20:10:22.979Z,101407.28
2023-05-21T20:12:49.916Z,101405.75
2023-05-21T20:15:24.968Z,101401.84
2023-05-21T20:17:51.949Z,101398.28
2023-05-21T20:20:25.834Z,101394.53
2023-05-21T20:23:00.865Z,101392.84
2023-05-21T20:25:34.062Z,101393.34
2023-05-21T20:28:10.834Z,101397.03
2023-05-21T20:30:55.393Z,101384.34
2023-05-21T20:33:28.855Z,101389.59
2023-05-21T20:35:56.210Z,101376.91
2023-05-21T20:38:32.783Z,101383.00
2023-05-21T20:41:00.745Z,101382.31
2023-05-21T20:43:34.930Z,101374.19
2023-05-21T20:46:02.746Z,101376.06
2023-05-21T20:48:36.808Z,101377.53
2023-05-21T20:51:04.855Z,101364.88
2023-05-21T20:53:32.273Z,101371.44
2023-05-21T20:56:08.184Z,101372.97
2023-05-21T20:58:41.939Z,101345.91
2023-05-21T21:01:11.084Z,101367.38
2023-05-21T21:03:47.962Z,101351.44
2023-05-21T21:06:19.079Z,101345.53
2023-05-21T21:08:52.846Z,101353.78
2023-05-21T21:11:26.855Z,101364.03
2023-05-21T21:14:00.001Z,101354.38
2023-05-21T21:16:34.065Z,101354.69
2023-05-21T21:19:01.583Z,101362.97
2023-05-21T21:21:35.871Z,101375.94
2023-05-21T21:24:03.009Z,101366.34
2023-05-21T21:26:36.891Z,101408.25
2023-05-21T21:29:10.085Z,101442.56
2023-05-21T21:31:50.868Z,101437.59
2023-05-21T21:34:17.847Z,101450.38
2023-05-21T21:36:50.913Z,101435.69
2023-05-21T21:39:18.103Z,101434.00
2023-05-21T21:41:51.993Z,101442.28
2023-05-21T21:44:19.919Z,101442.47
2023-05-21T21:46:53.974Z,101440.13
2023-05-21T21:49:27.947Z,101437.28
2023-05-21T21:51:58.158Z,101436.78
2023-05-21T21:54:32.018Z,101434.78
2023-05-21T21:56:59.754Z,101428.72
2023-05-21T21:59:32.915Z,101423.31
2023-05-21T22:02:03.160Z,101415.41
2023-05-21T22:04:36.899Z,101409.31
2023-05-21T22:07:04.036Z,101406.81
2023-05-21T22:09:37.996Z,101409.50
2023-05-21T22:12:07.965Z,101407.78
2023-05-21T22:14:41.952Z,101414.91
2023-05-21T22:17:09.393Z,101409.84
2023-05-21T22:19:43.034Z,101414.38
2023-05-21T22:22:10.353Z,101387.34
2023-05-21T22:24:43.945Z,101374.31
2023-05-21T22:27:17.073Z,101390.75
2023-05-21T22:29:50.131Z,101376.03
2023-05-21T22:32:23.865Z,101369.59
2023-05-21T22:34:57.118Z,101377.88
2023-05-21T22:37:32.984Z,101368.56
2023-05-21T22:40:00.200Z,101372.97
2023-05-21T22:42:33.971Z,101336.75
2023-05-21T22:45:01.203Z,101345.91
2023-05-21T22:47:35.074Z,101363.25
2023-05-21T22:50:04.678Z,101369.19
2023-05-21T22:52:38.953Z,101353.91
2023-05-21T22:55:06.674Z,101370.78
2023-05-21T22:57:40.027Z,101376.28
2023-05-21T23:00:08.047Z,101353.75
2023-05-21T23:02:42.646Z,101372.53
2023-05-21T23:05:16.150Z,101367.47
2023-05-21T23:07:50.016Z,101366.94
2023-05-21T23:10:24.282Z,101372.97
2023-05-21T23:12:51.322Z,101376.69
2023-05-21T23:15:26.327Z,101379.50
2023-05-21T23:17:55.536Z,101375.47
2023-05-21T23:20:30.077Z,101377.09
2023-05-21T23:22:57.061Z,101385.31
2023-05-21T23:25:31.262Z,101383.97
2023-05-21T23:28:19.078Z,101382.91
2023-05-21T23:30:53.084Z,101362.72
2023-05-21T23:33:20.145Z,101373.34
2023-05-21T23:35:54.043Z,101378.91
2023-05-21T23:38:21.129Z,101368.75
2023-05-21T23:40:55.267Z,101381.31
2023-05-21T23:43:22.084Z,101377.91
2023-05-21T23:45:56.224Z,101364.19
2023-05-21T23:48:30.178Z,101363.66
2023-05-21T23:51:03.941Z,101355.03
2023-05-21T23:53:38.051Z,101360.75
2023-05-21T23:56:05.959Z,101354.50
2023-05-21T23:58:38.953Z,101365.00
